Time;durP1;ratioP1;P1;durP2;ratioP2;P2;SDS_P1;SDS_P2;PMS_P1;PMS_P2;Temp;Humidity;BMP_temperature;BMP_pressure;BME280_temperature;BME280_humidity;BME280_pressure;Samples;Min_cycle;Max_cycle;Signal;HPM_P1;HPM_P2
2021/06/22 00:02:44;;;;;;;4.63;4.22;;;17.80;93.10;;;;;;5051278;28;20040;-58
2021/06/22 00:05:30;;;;;;;5.82;5.03;;;17.80;93.20;;;;;;5038378;28;20056;-57
2021/06/22 00:08:13;;;;;;;6.00;5.40;;;17.70;93.00;;;;;;5026402;28;20043;-57
2021/06/22 00:10:58;;;;;;;6.75;5.72;;;17.70;93.30;;;;;;5014952;28;20045;-58
2021/06/22 00:13:42;;;;;;;6.47;5.60;;;17.70;92.90;;;;;;5032542;28;20052;-56
2021/06/22 00:16:26;;;;;;;7.57;6.38;;;17.70;93.10;;;;;;5052948;28;20083;-57
2021/06/22 00:19:12;;;;;;;8.35;6.68;;;17.70;93.40;;;;;;5033694;28;20048;-59
2021/06/22 00:21:57;;;;;;;7.53;6.32;;;17.80;92.90;;;;;;5032937;28;20057;-59
2021/06/22 00:24:41;;;;;;;7.47;6.57;;;17.90;92.50;;;;;;5031156;28;20091;-55
2021/06/22 00:27:25;;;;;;;8.00;7.13;;;17.90;92.60;;;;;;5031756;28;20119;-56
2021/06/22 00:30:10;;;;;;;9.15;7.60;;;17.80;92.70;;;;;;5032665;28;20041;-56
2021/06/22 00:32:54;;;;;;;8.55;7.65;;;17.80;92.70;;;;;;5022505;28;20078;-60
2021/06/22 00:35:39;;;;;;;8.27;7.25;;;18.00;92.30;;;;;;5031545;28;20037;-60
2021/06/22 00:38:23;;;;;;;8.93;8.05;;;17.80;92.40;;;;;;5032668;28;20076;-59
2021/06/22 00:41:07;;;;;;;11.13;8.63;;;17.80;92.40;;;;;;5032569;28;20072;-57
2021/06/22 00:43:51;;;;;;;10.05;8.35;;;17.80;92.40;;;;;;5021168;28;20044;-59
2021/06/22 00:46:36;;;;;;;9.45;8.50;;;17.90;92.50;;;;;;5031759;28;20503;-56
2021/06/22 00:49:21;;;;;;;10.50;9.50;;;17.90;92.20;;;;;;5024472;28;20511;-55
2021/06/22 00:52:05;;;;;;;11.25;10.13;;;17.70;92.50;;;;;;5026766;28;20052;-58
2021/06/22 00:54:50;;;;;;;11.00;9.90;;;17.70;92.20;;;;;;5031730;28;20095;-58
2021/06/22 00:57:34;;;;;;;10.27;9.38;;;17.50;92.60;;;;;;5030783;28;20064;-57
2021/06/22 01:00:18;;;;;;;10.18;9.27;;;17.50;92.70;;;;;;5030560;28;20041;-58
2021/06/22 01:03:03;;;;;;;9.93;8.70;;;17.50;92.60;;;;;;5030629;28;20080;-58
2021/06/22 01:05:48;;;;;;;10.30;9.30;;;17.40;93.30;;;;;;5019039;28;20043;-58
2021/06/22 01:08:33;;;;;;;9.52;8.60;;;17.40;92.70;;;;;;5027755;28;20077;-59
2021/06/22 01:11:17;;;;;;;9.07;8.18;;;17.40;92.80;;;;;;5032464;28;20091;-58
2021/06/22 01:14:02;;;;;;;9.68;8.68;;;17.50;92.60;;;;;;5017746;28;20064;-57
2021/06/22 01:16:46;;;;;;;9.63;8.15;;;17.50;92.50;;;;;;5031349;28;20045;-55
2021/06/22 01:19:31;;;;;;;9.68;8.73;;;17.20;92.60;;;;;;5032312;28;20032;-56
2021/06/22 01:22:15;;;;;;;9.93;8.57;;;17.20;92.70;;;;;;5032376;28;20036;-56
2021/06/22 01:24:59;;;;;;;9.93;8.82;;;17.20;92.70;;;;;;5032517;28;20096;-56
2021/06/22 01:27:43;;;;;;;9.65;8.38;;;17.30;92.50;;;;;;5030978;28;20056;-58
2021/06/22 01:30:30;;;;;;;9.75;8.52;;;17.40;92.20;;;;;;5032315;28;20396;-57
2021/06/22 01:33:14;;;;;;;10.38;9.02;;;17.40;92.20;;;;;;5032244;28;20519;-57
2021/06/22 01:35:58;;;;;;;10.27;8.93;;;17.60;91.80;;;;;;5031714;28;20087;-59
2021/06/22 01:38:42;;;;;;;10.10;8.43;;;17.60;92.00;;;;;;5019627;28;20032;-59
2021/06/22 01:41:26;;;;;;;10.75;9.27;;;17.60;91.80;;;;;;5032433;28;20041;-57
2021/06/22 01:44:11;;;;;;;10.07;9.05;;;17.60;92.00;;;;;;5031355;28;20084;-56
2021/06/22 01:46:55;;;;;;;9.55;8.55;;;17.60;91.80;;;;;;5031782;28;20129;-58
2021/06/22 01:49:39;;;;;;;9.63;8.73;;;17.80;91.60;;;;;;5031860;28;20164;-57
2021/06/22 01:52:23;;;;;;;10.00;9.00;;;18.00;91.40;;;;;;5030894;28;20040;-58
2021/06/22 01:55:53;;;;;;;9.60;8.68;;;18.10;91.20;;;;;;5034477;28;20053;-58
2021/06/22 01:58:14;;;;;;;10.27;9.07;;;18.30;90.80;;;;;;5033185;28;20040;-58
2021/06/22 02:00:59;;;;;;;9.95;8.88;;;18.30;90.80;;;;;;5035370;28;20121;-58
2021/06/22 02:03:44;;;;;;;10.13;9.02;;;18.30;90.90;;;;;;5035246;28;20514;-55
2021/06/22 02:06:29;;;;;;;9.82;8.68;;;18.20;90.90;;;;;;5035010;28;20156;-56
2021/06/22 02:09:13;;;;;;;11.43;9.63;;;18.20;91.00;;;;;;5034937;28;20032;-58
2021/06/22 02:11:57;;;;;;;9.73;8.73;;;18.10;90.90;;;;;;5035261;28;20097;-58
2021/06/22 02:14:42;;;;;;;9.02;8.05;;;17.80;91.20;;;;;;5035359;28;20032;-55
2021/06/22 02:17:26;;;;;;;10.27;9.02;;;17.70;91.60;;;;;;5034508;28;20083;-59
2021/06/22 02:20:11;;;;;;;;;;;17.70;91.80;;;;;;5035219;28;20080;-58
2021/06/22 02:22:55;;;;;;;11.03;9.33;;;17.90;91.90;;;;;;5035242;28;19912;-58
2021/06/22 02:25:40;;;;;;;5.13;4.63;;;18.00;91.80;;;;;;5033215;28;20770;-58
2021/06/22 02:28:24;;;;;;;7.38;6.65;;;18.00;90.50;;;;;;5034923;28;20099;-55
2021/06/22 02:31:08;;;;;;;8.82;7.93;;;17.90;90.80;;;;;;5039766;28;20048;-57
2021/06/22 02:33:52;;;;;;;8.20;7.40;;;17.70;91.70;;;;;;5054725;28;20082;-55
2021/06/22 02:36:36;;;;;;;7.53;6.28;;;17.60;91.80;;;;;;5049944;28;20064;-56
2021/06/22 02:39:21;;;;;;;7.30;6.57;;;17.70;91.50;;;;;;5033653;28;20068;-57
2021/06/22 02:42:05;;;;;;;7.70;6.30;;;17.60;91.80;;;;;;5021570;28;20043;-56
2021/06/22 02:44:50;;;;;;;9.07;6.32;;;17.50;91.90;;;;;;5034656;28;20029;-59
2021/06/22 02:47:34;;;;;;;;;;;17.60;91.80;;;;;;5034551;28;20036;-57
2021/06/22 02:50:21;;;;;;;7.00;6.30;;;17.60;91.70;;;;;;5033042;28;19920;-58
2021/06/22 02:53:05;;;;;;;8.10;6.50;;;17.30;92.50;;;;;;5019266;28;20048;-57
2021/06/22 02:55:49;;;;;;;8.70;6.60;;;17.30;92.30;;;;;;5033899;28;20040;-61
2021/06/22 02:58:33;;;;;;;8.50;6.35;;;17.30;92.40;;;;;;5034514;28;20044;-58
2021/06/22 03:01:17;;;;;;;6.75;5.82;;;17.30;92.40;;;;;;5034096;28;20109;-56
2021/06/22 03:04:02;;;;;;;7.75;5.63;;;17.20;92.80;;;;;;5034500;28;20205;-58
2021/06/22 03:06:46;;;;;;;5.35;4.70;;;17.20;92.60;;;;;;5033461;28;20040;-58
2021/06/22 03:09:30;;;;;;;6.28;5.20;;;17.30;92.50;;;;;;5034482;28;20040;-55
2021/06/22 03:12:14;;;;;;;5.22;4.25;;;17.40;92.10;;;;;;5033666;28;20171;-58
2021/06/22 03:14:58;;;;;;;4.87;4.00;;;17.40;92.10;;;;;;5033991;28;20064;-57
2021/06/22 03:17:42;;;;;;;6.28;4.43;;;17.50;92.20;;;;;;5033703;28;20334;-57
2021/06/22 03:20:26;;;;;;;5.35;4.63;;;17.60;91.70;;;;;;5033697;28;20064;-59
2021/06/22 03:23:10;;;;;;;6.78;4.80;;;17.60;91.70;;;;;;5033370;28;20040;-56
2021/06/22 03:25:55;;;;;;;6.57;5.40;;;17.70;91.70;;;;;;5032738;28;20056;-59
2021/06/22 03:28:39;;;;;;;7.05;5.32;;;17.70;91.80;;;;;;5020381;28;20404;-57
2021/06/22 03:31:23;;;;;;;7.23;6.17;;;17.70;91.80;;;;;;5033250;28;20033;-55
2021/06/22 03:34:07;;;;;;;7.53;6.63;;;17.80;91.70;;;;;;5053656;28;20027;-56
2021/06/22 03:36:51;;;;;;;8.13;6.47;;;17.70;91.80;;;;;;5045831;28;20566;-55
2021/06/22 03:39:36;;;;;;;6.15;5.38;;;17.50;92.20;;;;;;5035127;28;20384;-59
2021/06/22 03:42:20;;;;;;;7.05;5.30;;;17.50;92.10;;;;;;5034519;28;20052;-56
2021/06/22 03:45:07;;;;;;;6.30;5.32;;;17.40;92.20;;;;;;5034982;28;20033;-57
2021/06/22 03:47:52;;;;;;;7.20;5.53;;;17.40;92.40;;;;;;5033393;28;20056;-57
2021/06/22 03:50:36;;;;;;;7.93;5.00;;;17.30;92.80;;;;;;5033701;28;20084;-58
2021/06/22 03:53:20;;;;;;;5.13;4.53;;;17.20;92.80;;;;;;5033318;28;20044;-55
2021/06/22 03:56:06;;;;;;;5.20;4.38;;;17.20;92.80;;;;;;5030571;28;20436;-58
2021/06/22 03:58:51;;;;;;;5.60;4.15;;;17.30;92.60;;;;;;5026530;28;20084;-56
2021/06/22 04:01:35;;;;;;;4.22;3.20;;;17.40;92.40;;;;;;5033170;28;20087;-59
2021/06/22 04:04:19;;;;;;;4.57;3.15;;;17.30;92.40;;;;;;5031905;28;20044;-59
2021/06/22 04:07:03;;;;;;;3.55;3.25;;;17.10;92.80;;;;;;5032666;28;20408;-58
2021/06/22 04:09:48;;;;;;;5.15;3.47;;;17.00;93.00;;;;;;5033260;28;20184;-58
2021/06/22 04:12:32;;;;;;;3.92;3.30;;;17.10;93.00;;;;;;5031814;28;20080;-58
2021/06/22 04:15:17;;;;;;;3.47;3.17;;;17.10;92.90;;;;;;5032535;28;20052;-57
2021/06/22 04:18:03;;;;;;;4.90;3.55;;;17.30;92.60;;;;;;5032125;28;20112;-55
2021/06/22 04:20:48;;;;;;;3.75;3.45;;;17.20;92.70;;;;;;5033035;28;20072;-57
2021/06/22 04:23:32;;;;;;;4.45;3.67;;;17.00;93.00;;;;;;5052215;28;20036;-56
2021/06/22 04:26:16;;;;;;;3.87;3.43;;;16.90;93.20;;;;;;5052780;28;20076;-59
2021/06/22 04:29:01;;;;;;;2.97;2.67;;;16.90;93.20;;;;;;5045939;28;20404;-57
2021/06/22 04:31:46;;;;;;;3.60;2.90;;;17.00;93.10;;;;;;5027938;28;20035;-58
2021/06/22 04:34:30;;;;;;;4.47;3.25;;;17.20;92.80;;;;;;5032122;28;20063;-57
2021/06/22 04:37:14;;;;;;;3.92;3.30;;;17.20;92.70;;;;;;5028715;28;20056;-58
2021/06/22 04:39:58;;;;;;;3.92;3.20;;;17.30;92.50;;;;;;5032516;28;20083;-58
2021/06/22 04:42:42;;;;;;;4.22;3.60;;;17.30;92.40;;;;;;5052272;28;20458;-57
2021/06/22 04:45:27;;;;;;;4.68;3.38;;;17.40;92.30;;;;;;5036637;28;20025;-58
2021/06/22 04:48:11;;;;;;;3.80;3.40;;;17.40;92.40;;;;;;5048167;28;20499;-59
2021/06/22 04:50:58;;;;;;;6.40;3.80;;;17.40;92.40;;;;;;5029429;28;20499;-60
2021/06/22 04:53:42;;;;;;;5.18;3.88;;;17.20;92.50;;;;;;5031673;28;20271;-57
2021/06/22 04:56:27;;;;;;;3.92;3.53;;;17.10;92.70;;;;;;5031850;28;20037;-54
2021/06/22 04:59:11;;;;;;;5.63;3.40;;;16.80;93.40;;;;;;5032313;28;20469;-59
2021/06/22 05:01:55;;;;;;;4.82;4.40;;;17.00;93.30;;;;;;5025331;28;20122;-58
2021/06/22 05:04:39;;;;;;;4.35;3.80;;;16.90;93.20;;;;;;5022233;28;20076;-55
2021/06/22 05:07:23;;;;;;;5.88;3.80;;;16.90;93.30;;;;;;5024918;28;20397;-57
2021/06/22 05:10:09;;;;;;;5.03;3.80;;;17.00;93.10;;;;;;5027575;28;20453;-56
2021/06/22 05:12:53;;;;;;;4.30;3.90;;;17.20;93.00;;;;;;5032912;28;20666;-58
2021/06/22 05:15:37;;;;;;;7.45;6.20;;;17.20;92.90;;;;;;5031640;28;20036;-57
2021/06/22 05:18:21;;;;;;;4.95;4.32;;;17.30;92.60;;;;;;5032965;28;20168;-53
2021/06/22 05:21:06;;;;;;;5.82;4.57;;;17.20;92.60;;;;;;5032265;28;20128;-56
2021/06/22 05:23:50;;;;;;;5.13;4.38;;;17.20;92.70;;;;;;5032029;28;20041;-55
2021/06/22 05:26:34;;;;;;;6.55;4.53;;;17.20;92.90;;;;;;5031729;28;20523;-57
2021/06/22 05:29:18;;;;;;;6.30;4.38;;;17.20;92.80;;;;;;5032783;28;20076;-56
2021/06/22 05:32:02;;;;;;;5.20;4.20;;;17.20;92.80;;;;;;5020684;28;20040;-58
2021/06/22 05:34:47;;;;;;;4.80;3.85;;;17.20;92.60;;;;;;5034169;28;20076;-54
2021/06/22 05:37:31;;;;;;;4.85;3.75;;;17.30;92.80;;;;;;5034313;28;20040;-56
2021/06/22 05:40:15;;;;;;;5.00;3.45;;;17.30;92.50;;;;;;5035875;28;20041;-56
2021/06/22 05:42:59;;;;;;;3.97;3.47;;;17.20;92.60;;;;;;5037810;28;20080;-58
2021/06/22 05:45:44;;;;;;;6.10;3.95;;;17.10;92.70;;;;;;5037597;28;20040;-57
2021/06/22 05:48:28;;;;;;;5.03;3.85;;;17.10;92.70;;;;;;5038248;28;20100;-57
2021/06/22 05:51:12;;;;;;;4.28;3.70;;;17.10;92.80;;;;;;5058330;28;20032;-53
2021/06/22 05:53:56;;;;;;;4.70;3.58;;;17.20;92.80;;;;;;5058143;28;20106;-55
2021/06/22 05:56:40;;;;;;;6.25;4.10;;;17.30;92.80;;;;;;5038218;28;20032;-57
2021/06/22 05:59:24;;;;;;;4.10;3.58;;;17.30;92.80;;;;;;5038997;28;20037;-54
2021/06/22 06:02:09;;;;;;;5.45;3.78;;;17.30;93.00;;;;;;5038012;28;20033;-54
2021/06/22 06:04:53;;;;;;;4.93;3.85;;;17.30;93.00;;;;;;5036656;28;20029;-57
2021/06/22 06:07:37;;;;;;;4.00;3.53;;;17.20;93.20;;;;;;5036211;28;20029;-57
2021/06/22 06:10:22;;;;;;;4.82;3.33;;;17.40;92.90;;;;;;5036564;28;20040;-58
2021/06/22 06:13:06;;;;;;;5.18;3.40;;;17.40;92.70;;;;;;5037277;28;20037;-57
2021/06/22 06:15:50;;;;;;;3.55;3.25;;;17.30;92.60;;;;;;5036787;28;20095;-59
2021/06/22 06:18:34;;;;;;;3.95;3.50;;;17.30;92.60;;;;;;5038015;28;20392;-57
2021/06/22 06:21:19;;;;;;;6.22;4.13;;;17.40;92.40;;;;;;5037479;28;20095;-56
2021/06/22 06:24:04;;;;;;;4.50;3.80;;;17.30;92.70;;;;;;5036014;28;20059;-56
2021/06/22 06:26:58;;;;;;;3.95;3.53;;;17.20;92.80;;;;;;5035274;28;20099;-55
2021/06/22 06:29:50;;;;;;;4.28;3.65;;;17.20;93.10;;;;;;5036245;28;20116;-56
2021/06/22 06:32:34;;;;;;;4.65;3.70;;;17.20;93.20;;;;;;5035983;28;20040;-56
2021/06/22 06:35:19;;;;;;;4.20;3.80;;;17.10;93.20;;;;;;5035037;28;20057;-57
2021/06/22 06:38:03;;;;;;;3.70;3.40;;;17.00;93.40;;;;;;5035154;28;21701;-54
2021/06/22 06:40:48;;;;;;;4.63;3.42;;;17.10;93.40;;;;;;5035079;28;20040;-56
2021/06/22 06:43:32;;;;;;;4.10;3.25;;;17.10;93.40;;;;;;5035053;28;20044;-56
2021/06/22 06:46:16;;;;;;;4.80;3.60;;;17.00;93.60;;;;;;5033894;28;20092;-58
2021/06/22 06:49:00;;;;;;;5.72;3.33;;;17.00;93.70;;;;;;5034120;28;20794;-58
2021/06/22 06:51:44;;;;;;;3.80;3.45;;;17.30;93.10;;;;;;5034520;28;20180;-58
2021/06/22 06:54:29;;;;;;;3.50;3.20;;;17.40;92.80;;;;;;5034671;28;20041;-57
2021/06/22 06:57:13;;;;;;;3.85;2.92;;;17.50;92.40;;;;;;5033809;28;20064;-58
2021/06/22 06:59:57;;;;;;;3.65;3.33;;;17.40;92.60;;;;;;5035716;28;20040;-58
2021/06/22 07:02:41;;;;;;;4.63;3.85;;;17.30;92.50;;;;;;5035779;28;20099;-58
2021/06/22 07:05:27;;;;;;;5.38;3.25;;;17.30;91.70;;;;;;5034734;28;20492;-57
2021/06/22 07:08:11;;;;;;;6.28;3.67;;;17.20;92.20;;;;;;5035493;28;20266;-57
2021/06/22 07:10:56;;;;;;;4.35;3.03;;;17.40;92.10;;;;;;5022390;28;20083;-55
2021/06/22 07:13:40;;;;;;;3.53;3.20;;;17.50;92.30;;;;;;5053406;28;20048;-55
2021/06/22 07:16:24;;;;;;;3.60;3.30;;;17.60;91.80;;;;;;5052790;28;20412;-57
2021/06/22 07:19:08;;;;;;;4.28;3.88;;;17.60;91.90;;;;;;5053514;28;20154;-57
2021/06/22 07:21:52;;;;;;;5.15;3.88;;;17.60;91.50;;;;;;5055202;28;20078;-59
2021/06/22 07:24:36;;;;;;;5.13;4.50;;;17.50;91.70;;;;;;5054638;28;20028;-56
2021/06/22 07:27:21;;;;;;;4.55;4.13;;;17.40;91.80;;;;;;5031358;28;20096;-55
2021/06/22 07:30:06;;;;;;;4.70;4.30;;;17.40;91.80;;;;;;5032125;28;20527;-57
2021/06/22 07:32:51;;;;;;;6.00;4.38;;;17.30;92.00;;;;;;5033174;28;20048;-58
2021/06/22 07:35:35;;;;;;;;;;;17.20;91.80;;;;;;5033199;28;20040;-57
2021/06/22 07:38:19;;;;;;;7.78;4.60;;;17.40;91.80;;;;;;5031971;28;19955;-56
2021/06/22 07:41:03;;;;;;;6.03;4.22;;;17.50;91.80;;;;;;5032822;28;20029;-57
2021/06/22 07:43:47;;;;;;;5.60;4.72;;;17.50;91.50;;;;;;5033031;28;20091;-58
2021/06/22 07:46:32;;;;;;;6.13;4.57;;;17.50;91.30;;;;;;5032238;28;20507;-58
2021/06/22 07:49:16;;;;;;;4.57;4.10;;;17.20;91.90;;;;;;5036514;28;20052;-57
2021/06/22 07:52:00;;;;;;;4.82;4.38;;;17.40;91.90;;;;;;5029908;28;20096;-58
2021/06/22 07:54:44;;;;;;;4.57;4.18;;;17.40;91.80;;;;;;5003439;28;20053;-58
2021/06/22 07:57:29;;;;;;;5.90;4.88;;;17.30;92.10;;;;;;5031845;28;20112;-60
2021/06/22 08:03:23;;;;;;;6.07;5.47;;;16.80;92.90;;;;;;5030321;28;20067;-61
2021/06/22 08:06:08;;;;;;;6.75;6.05;;;17.00;92.20;;;;;;5032675;28;20084;-58
2021/06/22 08:08:52;;;;;;;11.50;9.60;;;17.00;92.20;;;;;;5026294;28;20036;-59
2021/06/22 08:11:36;;;;;;;8.53;7.10;;;17.00;92.20;;;;;;5011871;28;20123;-59
2021/06/22 08:14:20;;;;;;;6.88;6.03;;;16.90;92.40;;;;;;5028193;28;20816;-58
2021/06/22 08:17:08;;;;;;;7.07;6.33;;;16.80;92.70;;;;;;5031471;28;20056;-57
2021/06/22 08:19:52;;;;;;;8.30;7.18;;;16.70;92.80;;;;;;5003960;28;20314;-54
2021/06/22 08:22:37;;;;;;;9.60;7.40;;;16.60;92.90;;;;;;5031208;28;20041;-58
2021/06/22 08:25:26;;;;;;;7.78;7.00;;;16.60;93.10;;;;;;5031827;28;20021;-59
2021/06/22 08:28:11;;;;;;;7.75;6.95;;;16.80;92.60;;;;;;5031772;28;20039;-58
2021/06/22 08:30:55;;;;;;;12.65;7.85;;;16.90;92.30;;;;;;5031435;28;20040;-54
2021/06/22 08:33:39;;;;;;;9.18;7.70;;;16.90;92.20;;;;;;5032094;28;20044;-58
2021/06/22 08:36:23;;;;;;;11.07;7.63;;;16.90;92.10;;;;;;5031225;28;20435;-54
2021/06/22 08:39:07;;;;;;;7.72;7.00;;;17.00;92.00;;;;;;5032054;28;20032;-60
2021/06/22 08:41:53;;;;;;;7.75;7.05;;;17.10;91.80;;;;;;5032090;28;20033;-59
2021/06/22 08:44:42;;;;;;;7.72;6.90;;;17.20;92.10;;;;;;5031716;28;20085;-59
2021/06/22 08:47:27;;;;;;;7.43;6.72;;;17.30;91.60;;;;;;5031482;28;20036;-56
2021/06/22 08:50:13;;;;;;;10.48;8.80;;;17.00;91.90;;;;;;5031718;28;20572;-59
2021/06/22 08:52:57;;;;;;;10.68;9.57;;;17.10;92.10;;;;;;5031593;28;20037;-58
2021/06/22 08:55:42;;;;;;;10.27;9.02;;;17.00;92.10;;;;;;5031239;28;20069;-59
2021/06/22 08:58:27;;;;;;;10.07;9.07;;;16.90;92.30;;;;;;5031663;28;20033;-59
2021/06/22 09:01:12;;;;;;;10.63;8.70;;;17.10;92.10;;;;;;5031667;28;20032;-60
2021/06/22 09:03:56;;;;;;;10.77;9.25;;;16.90;92.40;;;;;;5030845;28;20125;-60
2021/06/22 09:06:44;;;;;;;9.80;8.90;;;17.00;92.40;;;;;;5030751;28;20554;-58
2021/06/22 09:09:42;;;;;;;10.68;9.55;;;17.00;92.10;;;;;;5051672;28;20044;-60
2021/06/22 09:12:27;;;;;;;10.95;9.35;;;17.00;92.00;;;;;;5036122;28;20032;-60
2021/06/22 09:15:31;;;;;;;8.75;7.85;;;17.00;92.20;;;;;;5051368;28;20036;-59
2021/06/22 09:18:29;;;;;;;8.98;7.97;;;17.10;91.60;;;;;;5051380;28;20067;-59
2021/06/22 09:21:23;;;;;;;10.07;7.88;;;17.10;91.30;;;;;;5051578;28;20036;-58
2021/06/22 09:24:19;;;;;;;9.95;8.95;;;17.30;91.40;;;;;;5035823;28;20035;-57
2021/06/22 09:27:03;;;;;;;9.00;8.07;;;17.50;91.20;;;;;;5041221;28;20056;-57
2021/06/22 09:29:47;;;;;;;9.00;8.02;;;17.90;90.70;;;;;;5031221;28;20096;-55
2021/06/22 09:32:31;;;;;;;12.38;7.60;;;18.10;90.20;;;;;;5031363;28;20396;-56
2021/06/22 09:35:21;;;;;;;9.43;7.55;;;18.30;89.50;;;;;;5031198;28;20032;-59
2021/06/22 09:38:05;;;;;;;9.52;8.65;;;18.40;89.00;;;;;;5029994;28;20060;-59
2021/06/22 09:41:10;;;;;;;9.07;8.27;;;18.50;87.80;;;;;;5031395;28;20041;-58
2021/06/22 09:44:04;;;;;;;;;;;18.50;87.60;;;;;;5020759;28;20033;-58
2021/06/22 09:46:56;;;;;;;9.50;8.48;;;18.00;89.30;;;;;;5026165;28;19964;-60
2021/06/22 09:49:41;;;;;;;9.32;8.43;;;18.30;89.00;;;;;;5028038;28;20106;-60
2021/06/22 09:52:26;;;;;;;9.25;8.38;;;18.40;89.70;;;;;;5028044;28;20092;-60
2021/06/22 09:55:10;;;;;;;8.18;7.47;;;18.50;88.70;;;;;;5030479;28;20032;-57
2021/06/22 09:57:54;;;;;;;10.90;7.95;;;18.70;88.50;;;;;;5031117;28;20036;-55
2021/06/22 10:00:38;;;;;;;9.05;8.15;;;18.90;87.40;;;;;;5029902;28;20049;-58
2021/06/22 10:03:35;;;;;;;10.07;8.45;;;18.80;86.80;;;;;;5026075;28;20520;-58
2021/06/22 10:06:19;;;;;;;9.70;8.80;;;18.90;86.10;;;;;;5025418;28;20527;-59
2021/06/22 10:09:04;;;;;;;10.75;9.63;;;19.00;85.70;;;;;;5030987;28;20085;-59
2021/06/22 10:11:54;;;;;;;;;;;19.00;85.70;;;;;;5031431;28;20651;-60
2021/06/22 10:14:40;;;;;;;10.98;9.30;;;18.80;86.50;;;;;;5031248;28;19952;-56
2021/06/22 10:17:26;;;;;;;9.75;8.85;;;18.60;87.40;;;;;;5033595;28;20024;-59
2021/06/22 10:20:11;;;;;;;10.20;9.18;;;18.70;87.40;;;;;;5034496;28;20044;-59
2021/06/22 10:22:57;;;;;;;8.85;7.57;;;18.90;86.90;;;;;;5019777;28;20389;-58
2021/06/22 10:25:41;;;;;;;10.45;8.88;;;19.30;86.00;;;;;;5032799;28;20072;-57
2021/06/22 10:28:25;;;;;;;9.23;7.90;;;19.30;84.70;;;;;;5033731;28;20116;-57
2021/06/22 10:31:10;;;;;;;10.10;8.20;;;19.10;85.60;;;;;;5030702;28;20046;-58
2021/06/22 10:33:56;;;;;;;10.48;8.80;;;19.20;85.80;;;;;;5034319;28;20121;-57
2021/06/22 10:37:00;;;;;;;9.35;8.40;;;18.80;87.00;;;;;;5032594;28;20036;-59
2021/06/22 10:39:50;;;;;;;9.30;8.18;;;18.70;87.60;;;;;;5033222;28;20538;-58
2021/06/22 10:42:42;;;;;;;9.82;8.88;;;18.70;88.00;;;;;;5019148;28;20519;-59
2021/06/22 10:45:27;;;;;;;9.73;8.73;;;18.70;86.80;;;;;;5033732;28;20080;-58
2021/06/22 10:48:18;;;;;;;10.55;8.57;;;18.90;86.70;;;;;;5033860;28;20048;-57
2021/06/22 10:51:42;;;;;;;8.13;7.43;;;18.80;86.10;;;;;;5034115;28;20036;-55
2021/06/22 10:54:50;;;;;;;8.70;7.80;;;18.70;87.00;;;;;;5033921;28;20535;-58
2021/06/22 10:58:08;;;;;;;8.93;7.18;;;18.60;87.50;;;;;;5028747;28;20076;-59
2021/06/22 11:00:56;;;;;;;8.32;7.63;;;18.70;87.20;;;;;;5028605;28;20036;-59
2021/06/22 11:03:40;;;;;;;8.90;8.00;;;19.00;86.00;;;;;;5033417;28;20049;-59
2021/06/22 11:06:26;;;;;;;8.13;7.43;;;19.00;85.50;;;;;;5033403;28;20108;-58
2021/06/22 11:09:19;;;;;;;8.77;7.95;;;19.10;85.90;;;;;;5033586;28;20515;-57
2021/06/22 11:12:18;;;;;;;8.93;8.07;;;19.20;85.50;;;;;;5033599;28;20402;-59
2021/06/22 11:15:05;;;;;;;9.32;7.60;;;19.00;86.10;;;;;;5033135;28;20527;-59
2021/06/22 11:17:49;;;;;;;8.55;7.22;;;19.00;86.60;;;;;;5033428;28;20076;-58
2021/06/22 11:20:34;;;;;;;8.98;7.70;;;19.10;86.30;;;;;;5033374;28;20025;-58
2021/06/22 11:23:22;;;;;;;8.70;7.55;;;19.20;85.20;;;;;;5032947;28;20056;-57
2021/06/22 11:26:06;;;;;;;9.35;7.13;;;19.40;84.50;;;;;;5032531;28;20096;-59
2021/06/22 11:29:00;;;;;;;7.80;6.90;;;19.40;84.80;;;;;;5031836;28;20049;-59
2021/06/22 11:31:53;;;;;;;7.80;7.10;;;19.30;84.50;;;;;;5032934;28;20041;-57
2021/06/22 11:34:56;;;;;;;7.80;6.93;;;19.30;83.80;;;;;;5033078;28;20037;-58
2021/06/22 11:37:41;;;;;;;8.85;6.25;;;19.60;83.00;;;;;;5032719;28;20040;-59
2021/06/22 11:40:26;;;;;;;7.25;6.40;;;19.60;83.10;;;;;;5032897;28;20113;-61
2021/06/22 11:43:10;;;;;;;7.13;6.32;;;19.70;82.20;;;;;;5015113;28;20453;-59
2021/06/22 11:46:28;;;;;;;6.60;5.93;;;19.70;82.30;;;;;;5032141;28;20096;-59
2021/06/22 11:49:13;;;;;;;7.13;6.53;;;19.90;81.40;;;;;;5028674;28;20115;-59
2021/06/22 11:51:56;;;;;;;7.18;6.47;;;20.00;81.90;;;;;;5031449;28;20052;-60
2021/06/22 11:54:50;;;;;;;6.72;5.82;;;20.10;80.90;;;;;;5033454;28;20088;-58
2021/06/22 11:57:35;;;;;;;7.97;5.67;;;20.20;80.90;;;;;;5023980;28;20108;-58
2021/06/22 12:00:21;;;;;;;6.38;5.40;;;20.10;79.40;;;;;;5032611;28;20036;-59
2021/06/22 12:03:09;;;;;;;5.45;5.05;;;20.40;79.40;;;;;;5032751;28;20048;-57
2021/06/22 12:06:03;;;;;;;7.30;4.85;;;20.40;79.10;;;;;;5031235;28;20041;-60
2021/06/22 12:08:47;;;;;;;5.77;4.90;;;20.50;79.50;;;;;;5032445;28;20029;-59
2021/06/22 12:11:34;;;;;;;6.47;4.78;;;20.70;79.60;;;;;;5032725;28;20068;-58
2021/06/22 12:14:18;;;;;;;6.47;5.63;;;20.50;80.00;;;;;;5032636;28;20087;-59
2021/06/22 12:17:17;;;;;;;7.20;5.82;;;20.40;79.40;;;;;;5012786;28;20038;-59
2021/06/22 12:20:02;;;;;;;6.88;5.57;;;20.20;80.30;;;;;;5032345;28;20512;-61
2021/06/22 12:23:07;;;;;;;7.15;6.00;;;19.80;81.70;;;;;;5032619;28;20108;-58
2021/06/22 12:25:55;;;;;;;7.73;6.93;;;19.90;82.00;;;;;;5031658;28;20036;-59
2021/06/22 12:28:42;;;;;;;7.00;6.30;;;20.00;81.40;;;;;;5025437;28;20091;-58
2021/06/22 12:31:26;;;;;;;8.35;6.00;;;20.00;81.40;;;;;;5029459;28;20135;-60
2021/06/22 12:34:10;;;;;;;6.97;5.95;;;20.00;82.10;;;;;;5031379;28;20531;-60
2021/06/22 12:36:56;;;;;;;8.82;6.45;;;20.10;82.50;;;;;;5035266;28;20099;-59
2021/06/22 12:39:41;;;;;;;7.07;5.82;;;20.30;81.70;;;;;;5033472;28;20021;-59
2021/06/22 12:42:26;;;;;;;;;;;20.30;81.50;;;;;;5037474;28;20035;-60
2021/06/22 12:45:13;;;;;;;8.93;6.13;;;20.50;80.50;;;;;;5032216;28;19920;-59
2021/06/22 12:47:57;;;;;;;6.47;5.82;;;20.30;80.50;;;;;;5029368;28;20133;-60
2021/06/22 12:50:41;;;;;;;6.32;5.72;;;20.20;80.60;;;;;;5030984;28;20550;-60
2021/06/22 12:53:28;;;;;;;;;;;20.30;79.70;;;;;;5031169;28;20539;-58
2021/06/22 12:56:15;;;;;;;9.25;6.28;;;20.30;79.70;;;;;;5030227;28;20296;-59
2021/06/22 12:59:07;;;;;;;6.13;5.53;;;20.30;79.80;;;;;;5031680;28;20061;-59
2021/06/22 13:01:53;;;;;;;6.40;5.80;;;20.50;79.70;;;;;;5031002;28;20538;-58
2021/06/22 13:04:45;;;;;;;7.30;5.90;;;20.20;80.30;;;;;;5032289;28;20091;-60
2021/06/22 13:07:32;;;;;;;6.90;6.22;;;20.30;80.10;;;;;;5031432;28;20499;-57
2021/06/22 13:10:17;;;;;;;8.90;6.55;;;20.10;81.10;;;;;;5031578;28;20409;-62
2021/06/22 13:13:05;;;;;;;7.40;6.05;;;20.10;80.70;;;;;;5016658;28;20040;-59
2021/06/22 13:15:50;;;;;;;7.88;5.80;;;20.30;80.10;;;;;;5030915;28;20083;-60
2021/06/22 13:18:56;;;;;;;7.38;6.47;;;20.30;80.00;;;;;;5031605;28;20105;-60
2021/06/22 13:21:53;;;;;;;8.43;5.82;;;20.50;79.10;;;;;;5022446;28;20452;-58
2021/06/22 13:24:40;;;;;;;7.50;6.05;;;20.70;79.00;;;;;;5025689;28;20044;-58
2021/06/22 13:27:27;;;;;;;7.93;5.78;;;20.80;78.40;;;;;;5029423;28;20171;-60
2021/06/22 13:30:17;;;;;;;17.92;9.85;;;20.90;79.20;;;;;;5029047;28;20152;-58
2021/06/22 13:33:03;;;;;;;7.00;6.28;;;21.30;77.40;;;;;;5028069;28;20044;-59
2021/06/22 13:35:53;;;;;;;8.90;6.15;;;21.40;75.60;;;;;;5030659;28;20036;-57
2021/06/22 13:38:38;;;;;;;10.38;6.53;;;21.90;75.10;;;;;;5025673;28;20028;-59
2021/06/22 13:41:22;;;;;;;6.95;5.65;;;22.10;75.10;;;;;;5027387;28;20115;-58
2021/06/22 13:44:06;;;;;;;9.73;6.43;;;22.40;73.50;;;;;;5031253;28;20499;-59
2021/06/22 13:46:50;;;;;;;9.52;6.43;;;22.30;73.20;;;;;;5029550;28;20116;-59
2021/06/22 13:49:42;;;;;;;7.07;6.10;;;21.70;74.10;;;;;;5031462;28;20045;-58
2021/06/22 13:52:27;;;;;;;7.55;5.30;;;21.40;75.10;;;;;;5035476;28;20616;-60
2021/06/22 13:55:12;;;;;;;6.97;6.38;;;21.30;75.70;;;;;;5039058;28;20043;-57
2021/06/22 13:58:04;;;;;;;;;;;21.40;75.30;;;;;;5035696;28;20028;-59
2021/06/22 14:00:51;;;;;;;8.27;5.45;;;21.40;75.60;;;;;;5033759;28;20403;-54
2021/06/22 14:03:35;;;;;;;6.43;5.43;;;21.60;75.00;;;;;;5033979;28;20091;-57
2021/06/22 14:06:20;;;;;;;;;;;21.70;74.20;;;;;;5034675;28;20076;-59
2021/06/22 14:09:04;;;;;;;7.90;6.15;;;21.70;73.80;;;;;;5034599;28;20024;-59
2021/06/22 14:11:48;;;;;;;8.23;5.80;;;21.90;74.20;;;;;;5034394;28;20087;-57
2021/06/22 14:14:32;;;;;;;8.23;6.22;;;21.50;75.40;;;;;;5034604;28;20044;-60
2021/06/22 14:17:16;;;;;;;8.98;6.55;;;21.40;74.60;;;;;;5033772;28;20115;-58
2021/06/22 14:20:00;;;;;;;7.30;6.60;;;21.20;75.20;;;;;;5035681;28;20045;-59
2021/06/22 14:22:44;;;;;;;12.13;7.55;;;21.20;75.70;;;;;;5037811;28;20033;-59
2021/06/22 14:25:29;;;;;;;9.82;5.80;;;21.40;75.10;;;;;;5034371;28;20084;-58
2021/06/22 14:28:17;;;;;;;7.03;5.93;;;21.90;74.30;;;;;;5033901;28;20452;-57
2021/06/22 14:31:02;;;;;;;6.68;5.97;;;22.50;73.00;;;;;;5034023;28;20037;-59